createdAt,value
2019-05-29T00:00:26.645Z,10.40
2019-05-29T00:05:22.630Z,10.50
2019-05-29T00:10:18.694Z,10.40
2019-05-29T00:15:14.950Z,10.40
2019-05-29T00:20:10.870Z,10.30
2019-05-29T00:25:08.517Z,10.10
2019-05-29T00:30:11.165Z,10.10
2019-05-29T00:35:03.054Z,10.10
2019-05-29T00:39:58.962Z,10.10
2019-05-29T00:44:57.893Z,10.10
2019-05-29T00:49:56.800Z,10.10
2019-05-29T00:54:52.604Z,10.10
2019-05-29T00:59:48.643Z,10.10
2019-05-29T01:04:44.503Z,10.10
2019-05-29T01:09:40.545Z,10.00
2019-05-29T01:14:49.141Z,10.00
2019-05-29T01:19:34.472Z,10.10
2019-05-29T01:24:30.264Z,10.00
2019-05-29T01:29:26.019Z,10.10
2019-05-29T01:34:22.077Z,10.10
2019-05-29T01:39:17.938Z,10.10
2019-05-29T01:44:13.776Z,10.10
2019-05-29T01:49:10.010Z,10.10
2019-05-29T01:54:06.150Z,10.10
2019-05-29T01:59:02.118Z,10.10
2019-05-29T02:03:58.138Z,10.20
2019-05-29T02:08:53.946Z,10.10
2019-05-29T02:13:50.116Z,10.10
2019-05-29T02:18:46.007Z,10.10
2019-05-29T02:23:42.021Z,10.10
2019-05-29T02:28:37.838Z,10.00
2019-05-29T02:33:33.704Z,10.00
2019-05-29T02:38:29.547Z,10.00
2019-05-29T02:43:26.054Z,9.90
2019-05-29T02:48:23.615Z,10.00
2019-05-29T02:53:22.231Z,10.00
2019-05-29T02:58:18.246Z,10.00
2019-05-29T03:03:14.211Z,10.00
2019-05-29T03:08:10.375Z,10.00
2019-05-29T03:13:06.375Z,9.90
2019-05-29T03:18:02.223Z,9.90
2019-05-29T03:22:58.160Z,9.90
2019-05-29T03:27:54.246Z,9.90
2019-05-29T03:32:50.197Z,9.90
2019-05-29T03:37:46.065Z,10.00
2019-05-29T03:42:41.882Z,10.00
2019-05-29T03:47:37.818Z,10.00
2019-05-29T03:52:34.653Z,10.00
2019-05-29T03:57:31.761Z,10.00
2019-05-29T04:08:08.251Z,10.00
2019-05-29T04:13:05.144Z,10.10
2019-05-29T04:18:05.182Z,10.10
2019-05-29T04:23:04.556Z,10.10
2019-05-29T04:28:06.930Z,10.20
2019-05-29T04:33:02.839Z,10.30
2019-05-29T04:37:58.981Z,10.30
2019-05-29T04:42:54.888Z,10.40
2019-05-29T04:48:01.830Z,10.40
2019-05-29T04:52:58.076Z,10.50
2019-05-29T04:57:57.426Z,10.50
2019-05-29T05:02:53.351Z,10.60
2019-05-29T05:07:49.162Z,10.60
2019-05-29T05:12:45.439Z,10.70
2019-05-29T05:17:41.284Z,10.70
2019-05-29T05:22:38.191Z,10.80
2019-05-29T05:27:34.177Z,10.80
2019-05-29T05:32:30.797Z,10.90
2019-05-29T05:37:31.214Z,11.00
2019-05-29T05:42:29.293Z,11.00
2019-05-29T05:47:43.087Z,11.10
2019-05-29T05:52:23.052Z,11.20
2019-05-29T05:57:21.196Z,11.20
2019-05-29T06:02:17.293Z,11.30
2019-05-29T06:07:13.074Z,11.30
2019-05-29T06:12:09.143Z,11.40
2019-05-29T06:17:05.257Z,11.50
2019-05-29T06:22:01.140Z,11.60
2019-05-29T06:26:57.084Z,11.60
2019-05-29T06:31:55.776Z,11.60
2019-05-29T06:36:51.710Z,11.70
2019-05-29T06:41:47.704Z,11.90
2019-05-29T06:46:45.489Z,12.10
2019-05-29T06:51:41.587Z,12.30
2019-05-29T06:56:37.734Z,12.30
2019-05-29T07:01:33.585Z,12.30
2019-05-29T07:06:29.361Z,12.30
2019-05-29T07:11:25.134Z,12.30
2019-05-29T07:16:20.970Z,12.50
2019-05-29T07:21:16.780Z,12.70
2019-05-29T07:26:12.545Z,12.70
2019-05-29T07:31:10.682Z,12.70
2019-05-29T07:36:06.546Z,12.80
2019-05-29T07:41:02.897Z,13.00
2019-05-29T07:45:59.040Z,13.20
2019-05-29T07:51:06.900Z,13.50
2019-05-29T07:55:59.986Z,13.40
2019-05-29T08:01:11.636Z,13.30
2019-05-29T08:05:53.987Z,13.20
2019-05-29T08:10:51.541Z,13.00
2019-05-29T08:15:59.741Z,12.90
2019-05-29T08:20:46.433Z,12.70
2019-05-29T08:26:48.932Z,12.60
2019-05-29T08:32:14.592Z,12.70
2019-05-29T08:37:58.756Z,12.60
2019-05-29T08:42:59.321Z,12.70
2019-05-29T08:47:58.107Z,13.00
2019-05-29T08:59:02.709Z,13.10
2019-05-29T09:03:49.125Z,13.10
2019-05-29T09:08:46.650Z,13.10
2019-05-29T09:13:42.728Z,13.20
2019-05-29T09:18:38.568Z,13.40
2019-05-29T09:23:36.687Z,13.60
2019-05-29T09:28:29.857Z,13.40
2019-05-29T09:33:25.881Z,12.90
2019-05-29T09:38:23.043Z,12.50
2019-05-29T09:43:19.966Z,12.40
2019-05-29T09:48:20.290Z,12.50
2019-05-29T09:53:14.334Z,12.70
2019-05-29T09:58:16.665Z,13.00
2019-05-29T10:03:12.577Z,13.10
2019-05-29T10:08:08.636Z,13.50
2019-05-29T10:13:04.714Z,13.80
2019-05-29T10:18:02.607Z,14.20
2019-05-29T10:22:59.079Z,14.60
2019-05-29T10:27:57.103Z,14.70
2019-05-29T10:32:58.389Z,14.60
2019-05-29T10:38:27.506Z,14.90
2019-05-29T10:43:51.295Z,16.20
2019-05-29T10:48:49.255Z,17.00
2019-05-29T10:54:14.896Z,16.60
2019-05-29T10:59:13.173Z,15.50
2019-05-29T11:04:09.174Z,14.50
2019-05-29T11:09:08.266Z,13.70
2019-05-29T11:14:03.868Z,13.10
2019-05-29T11:18:59.910Z,12.60
2019-05-29T11:23:58.250Z,12.30
2019-05-29T11:28:54.582Z,12.50
2019-05-29T11:33:50.772Z,13.10
2019-05-29T11:38:47.627Z,13.70
2019-05-29T11:43:45.694Z,14.20
2019-05-29T11:48:41.676Z,14.50
2019-05-29T11:53:37.644Z,14.30
2019-05-29T11:58:33.688Z,14.20
2019-05-29T12:03:29.491Z,14.00
2019-05-29T12:08:25.306Z,13.60
2019-05-29T12:13:21.331Z,13.30
2019-05-29T12:18:23.602Z,13.20
2019-05-29T12:23:25.595Z,13.10
2019-05-29T12:28:12.427Z,13.40
2019-05-29T12:33:08.661Z,13.50
2019-05-29T12:38:10.491Z,13.70
2019-05-29T12:43:03.657Z,14.10
2019-05-29T12:48:15.059Z,14.50
2019-05-29T12:53:28.272Z,14.90
2019-05-29T12:58:08.614Z,15.10
2019-05-29T13:03:28.335Z,15.00
2019-05-29T13:08:21.499Z,15.00
2019-05-29T13:13:24.619Z,14.90
2019-05-29T13:18:17.881Z,15.20
2019-05-29T13:23:20.034Z,15.60
2019-05-29T13:28:13.830Z,15.70
2019-05-29T13:33:20.401Z,15.80
2019-05-29T13:38:18.384Z,16.00
2019-05-29T13:43:16.464Z,16.10
2019-05-29T13:48:12.069Z,16.10
2019-05-29T13:53:07.983Z,16.10
2019-05-29T13:58:03.901Z,16.20
2019-05-29T14:03:42.658Z,16.30
2019-05-29T14:09:28.922Z,16.00
2019-05-29T14:14:24.981Z,15.80
2019-05-29T14:19:20.980Z,15.50
2019-05-29T14:24:28.633Z,15.30
2019-05-29T14:29:15.430Z,15.10
2019-05-29T14:34:13.410Z,14.70
2019-05-29T14:39:10.063Z,14.40
2019-05-29T14:44:07.812Z,14.10
2019-05-29T14:49:13.495Z,13.90
2019-05-29T14:54:02.792Z,13.70
2019-05-29T14:58:58.740Z,13.50
2019-05-29T15:04:01.510Z,13.40
2019-05-29T15:08:57.513Z,13.20
2019-05-29T15:13:53.649Z,12.80
2019-05-29T15:18:49.707Z,12.70
2019-05-29T15:23:45.565Z,12.70
2019-05-29T15:28:49.009Z,12.70
2019-05-29T15:33:45.164Z,12.80
2019-05-29T15:38:41.200Z,12.90
2019-05-29T15:43:37.321Z,13.00
2019-05-29T15:48:33.496Z,13.10
2019-05-29T15:53:29.926Z,13.20
2019-05-29T15:58:26.620Z,13.30
2019-05-29T16:09:18.699Z,13.60
2019-05-29T16:14:30.843Z,13.80
2019-05-29T16:20:02.894Z,13.70
2019-05-29T16:25:40.466Z,13.40
2019-05-29T16:42:48.934Z,12.90
2019-05-29T17:01:55.312Z,12.80
2019-05-29T17:45:19.520Z,12.80
2019-05-29T17:50:13.266Z,12.80
2019-05-29T17:55:10.143Z,12.70
2019-05-29T18:00:08.471Z,12.60
2019-05-29T18:05:04.792Z,12.50
2019-05-29T18:10:10.291Z,12.50
2019-05-29T18:15:07.313Z,12.50
2019-05-29T18:20:03.711Z,12.50
2019-05-29T18:25:02.511Z,12.60
2019-05-29T18:30:00.749Z,12.60
2019-05-29T18:34:56.906Z,12.40
2019-05-29T18:39:53.149Z,12.40
2019-05-29T18:44:50.354Z,12.40
2019-05-29T18:49:49.503Z,12.30
